Time;durP1;ratioP1;P1;durP2;ratioP2;P2;SDS_P1;SDS_P2;PMS_P1;PMS_P2;Temp;Humidity;BMP_temperature;BMP_pressure;BME280_temperature;BME280_humidity;BME280_pressure;Samples;Min_cycle;Max_cycle;Signal;HPM_P1;HPM_P2
2021/01/05 00:00:32;;;;;;;19.60;9.67;;;1.90;99.90;;;;;;4201483;28;20481;-56
2021/01/05 00:02:33;;;;;;;22.03;10.17;;;1.90;99.90;;;;;;4201662;28;20490;-56
2021/01/05 00:04:35;;;;;;;17.73;8.77;;;1.90;99.90;;;;;;4201895;28;20466;-56
2021/01/05 00:06:36;;;;;;;17.00;8.53;;;1.90;99.90;;;;;;4201771;28;21171;-57
2021/01/05 00:08:38;;;;;;;17.27;8.37;;;1.90;99.90;;;;;;4201870;28;20506;-56
2021/01/05 00:10:39;;;;;;;20.17;8.77;;;1.90;99.90;;;;;;4201060;28;20490;-57
2021/01/05 00:12:41;;;;;;;20.90;8.57;;;1.90;99.90;;;;;;4200804;28;20478;-61
2021/01/05 00:14:44;;;;;;;20.50;9.60;;;1.90;99.90;;;;;;4200270;28;20485;-59
2021/01/05 00:16:45;;;;;;;21.20;8.63;;;1.90;99.90;;;;;;4200588;28;20481;-56
2021/01/05 00:18:46;;;;;;;20.00;9.03;;;1.90;99.90;;;;;;4201402;28;20484;-56
2021/01/05 00:20:48;;;;;;;21.83;9.93;;;1.80;99.90;;;;;;4201896;28;20476;-55
2021/01/05 00:22:50;;;;;;;19.00;8.57;;;1.80;99.90;;;;;;4200605;28;20469;-55
2021/01/05 00:24:51;;;;;;;20.17;9.33;;;1.80;99.90;;;;;;4200645;28;21107;-56
2021/01/05 00:26:52;;;;;;;23.47;10.43;;;1.90;99.90;;;;;;4199697;28;20477;-56
2021/01/05 00:28:54;;;;;;;22.10;9.93;;;1.90;99.90;;;;;;4201132;28;20466;-56
2021/01/05 00:30:56;;;;;;;18.77;8.77;;;1.90;99.90;;;;;;4201030;28;20468;-55
2021/01/05 00:32:57;;;;;;;21.97;9.87;;;1.90;99.90;;;;;;4200814;28;20499;-56
2021/01/05 00:34:58;;;;;;;21.93;9.57;;;1.90;99.90;;;;;;4201340;28;20458;-56
2021/01/05 00:37:00;;;;;;;21.10;8.93;;;1.90;99.90;;;;;;4200632;28;20470;-59
2021/01/05 00:39:04;;;;;;;19.50;9.20;;;1.90;99.90;;;;;;4200328;28;20469;-57
2021/01/05 00:41:05;;;;;;;19.87;9.10;;;1.90;99.90;;;;;;4201768;28;20482;-56
2021/01/05 00:43:07;;;;;;;19.53;8.87;;;1.90;99.90;;;;;;4199130;28;20497;-56
2021/01/05 00:45:10;;;;;;;23.27;9.90;;;1.80;99.90;;;;;;4201277;28;20553;-57
2021/01/05 00:47:12;;;;;;;20.10;9.07;;;1.80;99.90;;;;;;4200198;28;20472;-56
2021/01/05 00:49:13;;;;;;;19.83;9.03;;;1.90;99.90;;;;;;4199917;28;20515;-56
2021/01/05 00:51:15;;;;;;;23.47;9.80;;;1.90;99.90;;;;;;4200825;28;20566;-57
2021/01/05 00:53:17;;;;;;;20.77;9.80;;;1.90;99.90;;;;;;4200390;28;20508;-56
2021/01/05 00:55:18;;;;;;;24.33;10.77;;;1.90;99.90;;;;;;4200495;28;20933;-57
2021/01/05 00:57:20;;;;;;;20.53;9.87;;;1.90;99.90;;;;;;4198583;28;20489;-55
2021/01/05 00:59:21;;;;;;;21.33;9.40;;;1.90;99.90;;;;;;4199297;28;20570;-56
2021/01/05 01:01:23;;;;;;;20.97;9.50;;;1.90;99.90;;;;;;4200403;28;20553;-56
2021/01/05 01:03:25;;;;;;;22.67;9.63;;;1.80;99.90;;;;;;4201573;28;20480;-56
2021/01/05 01:05:26;;;;;;;23.17;9.90;;;1.90;99.90;;;;;;4200581;28;20468;-54
2021/01/05 01:07:27;;;;;;;20.20;9.50;;;1.90;99.90;;;;;;4200576;28;20478;-55
2021/01/05 01:09:29;;;;;;;18.13;8.53;;;1.90;99.90;;;;;;4199634;28;20524;-57
2021/01/05 01:11:30;;;;;;;20.37;9.17;;;1.90;99.90;;;;;;4200384;28;20485;-56
2021/01/05 01:13:31;;;;;;;20.40;9.13;;;1.90;99.90;;;;;;4199652;28;20520;-56
2021/01/05 01:15:33;;;;;;;20.23;9.53;;;1.90;99.90;;;;;;4199490;28;20481;-56
2021/01/05 01:17:35;;;;;;;22.63;9.77;;;1.80;99.90;;;;;;4199319;28;21061;-56
2021/01/05 01:19:36;;;;;;;20.27;9.47;;;1.80;99.90;;;;;;4200742;28;20470;-56
2021/01/05 01:21:44;;;;;;;17.27;8.97;;;1.80;99.90;;;;;;4199923;28;20468;-56
2021/01/05 01:23:46;;;;;;;21.50;9.23;;;1.90;99.90;;;;;;4199532;28;20489;-56
2021/01/05 01:25:47;;;;;;;21.30;9.73;;;1.90;99.90;;;;;;4200760;28;20469;-56
2021/01/05 01:27:49;;;;;;;21.40;9.10;;;1.90;99.90;;;;;;4199678;28;20492;-56
2021/01/05 01:29:50;;;;;;;19.30;9.30;;;1.90;99.90;;;;;;4199186;28;20504;-56
2021/01/05 01:31:52;;;;;;;21.30;9.50;;;1.80;99.90;;;;;;4198974;28;20554;-56
2021/01/05 01:33:55;;;;;;;25.60;10.73;;;1.80;99.90;;;;;;4200301;28;20477;-56
2021/01/05 01:35:56;;;;;;;24.87;10.33;;;1.80;99.90;;;;;;4200966;28;20506;-57
2021/01/05 01:37:57;;;;;;;22.33;9.70;;;1.80;99.90;;;;;;4200796;28;20475;-57
2021/01/05 01:39:59;;;;;;;20.00;9.27;;;1.80;99.90;;;;;;4199652;28;20474;-56
2021/01/05 01:42:03;;;;;;;23.70;9.67;;;1.80;99.90;;;;;;4198494;28;20478;-56
2021/01/05 01:44:05;;;;;;;19.90;9.17;;;1.80;99.90;;;;;;4200628;28;20602;-56
2021/01/05 01:46:07;;;;;;;22.23;9.87;;;1.80;99.90;;;;;;4200976;28;20472;-56
2021/01/05 01:48:10;;;;;;;24.17;10.27;;;1.80;99.90;;;;;;4198979;28;20482;-55
2021/01/05 01:50:14;;;;;;;23.93;9.73;;;1.80;99.90;;;;;;4199232;28;21062;-56
2021/01/05 01:52:25;;;;;;;22.43;9.37;;;1.80;99.90;;;;;;4199528;28;20469;-56
2021/01/05 01:55:05;;;;;;;20.20;9.47;;;1.80;99.90;;;;;;4199476;28;20463;-56
2021/01/05 01:57:33;;;;;;;22.73;8.80;;;1.80;99.90;;;;;;4199136;28;20497;-57
2021/01/05 02:00:01;;;;;;;21.97;9.80;;;1.80;99.90;;;;;;4188497;28;20965;-57
2021/01/05 02:02:08;;;;;;;23.77;10.37;;;1.80;99.90;;;;;;4199265;28;20475;-57
2021/01/05 02:04:38;;;;;;;24.37;9.50;;;1.80;99.90;;;;;;4199370;28;20503;-57
2021/01/05 02:06:54;;;;;;;22.00;9.57;;;1.80;99.90;;;;;;4199011;28;20486;-56
2021/01/05 02:09:08;;;;;;;23.40;9.97;;;1.80;99.90;;;;;;4201579;28;21120;-57
2021/01/05 02:11:22;;;;;;;21.20;9.10;;;1.80;99.90;;;;;;4199556;28;20465;-56
2021/01/05 02:13:46;;;;;;;22.60;9.77;;;1.80;99.90;;;;;;4199740;28;20933;-56
2021/01/05 02:16:02;;;;;;;21.93;9.73;;;1.80;99.90;;;;;;4199794;28;20470;-56
2021/01/05 02:18:14;;;;;;;23.27;10.50;;;1.80;99.90;;;;;;4200240;28;20461;-56
2021/01/05 02:20:20;;;;;;;23.13;9.53;;;1.80;99.90;;;;;;4199842;28;20476;-56
2021/01/05 02:22:28;;;;;;;21.37;9.37;;;1.80;99.90;;;;;;4200247;28;20491;-56
2021/01/05 02:24:40;;;;;;;19.80;9.10;;;1.70;99.90;;;;;;4199796;28;20597;-56
2021/01/05 02:26:48;;;;;;;23.67;9.50;;;1.70;99.90;;;;;;4200821;28;20466;-60
2021/01/05 02:28:53;;;;;;;20.27;9.70;;;1.70;99.90;;;;;;4199345;28;20473;-56
2021/01/05 02:31:01;;;;;;;21.20;9.27;;;1.70;99.90;;;;;;4200335;28;20495;-57
2021/01/05 02:33:16;;;;;;;24.53;9.80;;;1.70;99.90;;;;;;4200102;28;20472;-56
2021/01/05 02:35:35;;;;;;;23.43;9.73;;;1.80;99.90;;;;;;4200093;28;20960;-56
2021/01/05 02:37:42;;;;;;;21.00;9.37;;;1.70;99.90;;;;;;4199708;28;20975;-56
2021/01/05 02:40:08;;;;;;;21.80;9.23;;;1.70;99.90;;;;;;4199856;28;20461;-56
2021/01/05 02:42:27;;;;;;;22.27;10.17;;;1.70;99.90;;;;;;4198445;28;20474;-56
2021/01/05 02:44:39;;;;;;;19.57;9.33;;;1.70;99.90;;;;;;4201116;28;20459;-56
2021/01/05 02:46:51;;;;;;;23.80;10.80;;;1.70;99.90;;;;;;4199498;28;20532;-56
2021/01/05 02:49:10;;;;;;;24.63;10.37;;;1.70;99.90;;;;;;4200096;28;20463;-56
2021/01/05 02:51:52;;;;;;;22.90;9.10;;;1.70;99.90;;;;;;4198648;28;20473;-56
2021/01/05 02:54:23;;;;;;;24.70;9.67;;;1.70;99.90;;;;;;4200301;28;20485;-56
2021/01/05 02:56:57;;;;;;;25.17;10.20;;;1.70;99.90;;;;;;4199709;28;20479;-56
2021/01/05 02:59:29;;;;;;;23.50;10.03;;;1.70;99.90;;;;;;4198995;28;20495;-56
2021/01/05 03:01:55;;;;;;;22.33;9.23;;;1.70;99.90;;;;;;4199937;28;20466;-56
2021/01/05 03:03:57;;;;;;;23.10;10.47;;;1.70;99.90;;;;;;4201091;28;21100;-56
2021/01/05 03:06:25;;;;;;;25.83;10.07;;;1.70;99.90;;;;;;4199639;28;20485;-57
2021/01/05 03:08:29;;;;;;;24.07;9.83;;;1.70;99.90;;;;;;4201638;28;20470;-57
2021/01/05 03:10:45;;;;;;;24.63;10.43;;;1.70;99.90;;;;;;4203056;28;21020;-56
2021/01/05 03:13:11;;;;;;;22.60;9.77;;;1.70;99.90;;;;;;4202538;28;20481;-56
2021/01/05 03:15:30;;;;;;;26.43;10.70;;;1.70;99.90;;;;;;4202444;28;20493;-56
2021/01/05 03:17:36;;;;;;;23.73;9.83;;;1.70;99.90;;;;;;4203115;28;20476;-56
2021/01/05 03:19:46;;;;;;;24.33;10.10;;;1.70;99.90;;;;;;4203358;28;20461;-56
2021/01/05 03:21:52;;;;;;;22.27;10.20;;;1.70;99.90;;;;;;4203176;28;22358;-56
2021/01/05 03:23:57;;;;;;;24.93;10.23;;;1.70;99.90;;;;;;4202287;28;20474;-57
2021/01/05 03:26:03;;;;;;;19.83;9.00;;;1.70;99.90;;;;;;4203191;28;20469;-56
2021/01/05 03:28:07;;;;;;;22.90;9.93;;;1.70;99.90;;;;;;4202819;28;20471;-56
2021/01/05 03:30:12;;;;;;;24.40;10.63;;;1.70;99.90;;;;;;4202902;28;20574;-56
2021/01/05 03:32:14;;;;;;;23.23;9.97;;;1.70;99.90;;;;;;4203553;28;20493;-56
2021/01/05 03:34:17;;;;;;;23.60;9.80;;;1.70;99.90;;;;;;4202761;28;20481;-56
2021/01/05 03:36:18;;;;;;;21.77;9.90;;;1.70;99.90;;;;;;4202324;28;20465;-56
2021/01/05 03:38:19;;;;;;;25.17;9.23;;;1.70;99.90;;;;;;4202393;28;20472;-56
2021/01/05 03:40:21;;;;;;;23.37;10.03;;;1.70;99.90;;;;;;4202542;28;20461;-56
2021/01/05 03:42:22;;;;;;;23.70;9.97;;;1.70;99.90;;;;;;4203000;28;20734;-56
2021/01/05 03:44:23;;;;;;;22.30;9.97;;;1.70;99.90;;;;;;4202595;28;20475;-56
2021/01/05 03:46:27;;;;;;;22.40;9.87;;;1.70;99.90;;;;;;4201602;28;21313;-56
2021/01/05 03:48:29;;;;;;;18.87;8.80;;;1.70;99.90;;;;;;4202242;28;20483;-56
2021/01/05 03:50:31;;;;;;;23.03;10.13;;;1.70;99.90;;;;;;4201621;28;20488;-56
2021/01/05 03:52:32;;;;;;;21.60;9.13;;;1.70;99.90;;;;;;4201822;28;20954;-56
2021/01/05 03:54:33;;;;;;;25.63;9.90;;;1.70;99.90;;;;;;4202304;28;20470;-56
2021/01/05 03:56:34;;;;;;;23.47;10.27;;;1.70;99.90;;;;;;4202463;28;20489;-56
2021/01/05 03:58:36;;;;;;;21.47;9.80;;;1.60;99.90;;;;;;4201698;28;20503;-56
2021/01/05 04:00:37;;;;;;;24.17;9.83;;;1.70;99.90;;;;;;4201465;28;20478;-56
2021/01/05 04:02:38;;;;;;;23.00;10.10;;;1.70;99.90;;;;;;4201557;28;20599;-56
2021/01/05 04:04:40;;;;;;;22.67;10.27;;;1.70;99.90;;;;;;4202420;28;20995;-56
2021/01/05 04:06:42;;;;;;;24.70;9.83;;;1.70;99.90;;;;;;4202180;28;20474;-56
2021/01/05 04:08:43;;;;;;;21.47;10.03;;;1.70;99.90;;;;;;4202374;28;20476;-56
2021/01/05 04:10:44;;;;;;;24.60;9.30;;;1.60;99.90;;;;;;4201404;28;20504;-57
2021/01/05 04:12:46;;;;;;;21.10;8.90;;;1.70;99.90;;;;;;4201791;28;20563;-56
2021/01/05 04:14:47;;;;;;;21.13;9.37;;;1.70;99.90;;;;;;4201324;28;20472;-56
2021/01/05 04:16:49;;;;;;;25.23;9.87;;;1.70;99.90;;;;;;4202434;28;20475;-56
2021/01/05 04:18:50;;;;;;;21.20;8.40;;;1.60;99.90;;;;;;4201803;28;20476;-56
2021/01/05 04:20:52;;;;;;;19.93;9.33;;;1.70;99.90;;;;;;4201702;28;20548;-57
2021/01/05 04:22:54;;;;;;;23.87;10.27;;;1.70;99.90;;;;;;4201867;28;20931;-56
2021/01/05 04:24:55;;;;;;;18.53;9.13;;;1.60;99.90;;;;;;4202297;28;20537;-56
2021/01/05 04:26:57;;;;;;;24.57;9.97;;;1.70;99.90;;;;;;4201657;28;20474;-56
2021/01/05 04:28:58;;;;;;;21.07;9.50;;;1.70;99.90;;;;;;4202467;28;20542;-57
2021/01/05 04:31:00;;;;;;;25.43;9.73;;;1.60;99.90;;;;;;4200894;28;20488;-56
2021/01/05 04:33:04;;;;;;;21.63;9.10;;;1.70;99.90;;;;;;4201257;28;20462;-56
2021/01/05 04:35:06;;;;;;;20.63;9.30;;;1.70;99.90;;;;;;4202046;28;20487;-56
2021/01/05 04:37:09;;;;;;;23.77;10.57;;;1.70;99.90;;;;;;4202180;28;21134;-56
2021/01/05 04:39:10;;;;;;;23.23;9.27;;;1.60;99.90;;;;;;4201423;28;20481;-56
2021/01/05 04:41:17;;;;;;;21.20;9.13;;;1.60;99.90;;;;;;4201695;28;20478;-56
2021/01/05 04:43:51;;;;;;;21.03;9.07;;;1.60;99.90;;;;;;4201262;28;21182;-56
2021/01/05 04:46:06;;;;;;;22.67;9.37;;;1.70;99.90;;;;;;4201462;28;20933;-57
2021/01/05 04:48:18;;;;;;;22.13;8.40;;;1.70;99.90;;;;;;4200715;28;20494;-56
2021/01/05 04:50:28;;;;;;;21.57;9.30;;;1.70;99.90;;;;;;4199928;28;20479;-56
2021/01/05 04:52:37;;;;;;;22.83;9.30;;;1.60;99.90;;;;;;4200631;28;20466;-56
2021/01/05 04:54:44;;;;;;;21.63;8.93;;;1.60;99.90;;;;;;4201615;28;20469;-56
2021/01/05 04:56:59;;;;;;;19.73;8.93;;;1.70;99.90;;;;;;4202027;28;20507;-56
2021/01/05 04:59:01;;;;;;;19.97;8.87;;;1.60;99.90;;;;;;4201518;28;20648;-56
2021/01/05 05:01:07;;;;;;;22.00;9.47;;;1.60;99.90;;;;;;4201367;28;20480;-57
2021/01/05 05:03:29;;;;;;;20.77;8.47;;;1.70;99.90;;;;;;4200952;28;20502;-56
2021/01/05 05:05:57;;;;;;;22.27;9.47;;;1.70;99.90;;;;;;4201156;28;20506;-56
2021/01/05 05:08:20;;;;;;;25.07;10.17;;;1.70;99.90;;;;;;4200751;28;20479;-56
2021/01/05 05:10:26;;;;;;;22.63;9.30;;;1.70;99.90;;;;;;4201846;28;20532;-56
2021/01/05 05:12:53;;;;;;;21.10;8.77;;;1.70;99.90;;;;;;4201020;28;20481;-56
2021/01/05 05:15:02;;;;;;;20.33;9.47;;;1.70;99.90;;;;;;4198329;28;20481;-56
2021/01/05 05:17:29;;;;;;;20.47;8.70;;;1.70;99.90;;;;;;4200749;28;20459;-56
2021/01/05 05:19:42;;;;;;;21.63;9.27;;;1.70;99.90;;;;;;4201112;28;20495;-56
2021/01/05 05:21:48;;;;;;;22.27;9.73;;;1.70;99.90;;;;;;4200577;28;20465;-56
2021/01/05 05:24:06;;;;;;;19.77;9.03;;;1.70;99.90;;;;;;4201149;28;20464;-56
2021/01/05 05:26:14;;;;;;;22.03;9.77;;;1.70;99.90;;;;;;4200737;28;20465;-56
2021/01/05 05:28:21;;;;;;;22.87;9.27;;;1.70;99.90;;;;;;4202035;28;20473;-56
2021/01/05 05:30:32;;;;;;;21.83;9.47;;;1.70;99.90;;;;;;4200606;28;20501;-56
2021/01/05 05:32:38;;;;;;;20.00;8.60;;;1.80;99.90;;;;;;4200989;28;20466;-56
2021/01/05 05:34:50;;;;;;;17.47;8.03;;;1.80;99.90;;;;;;4201182;28;20470;-56
2021/01/05 05:37:12;;;;;;;20.37;9.43;;;1.80;99.90;;;;;;4200525;28;20488;-56
2021/01/05 05:39:47;;;;;;;22.83;9.27;;;1.80;99.90;;;;;;4200502;28;20461;-56
2021/01/05 05:42:00;;;;;;;21.67;9.40;;;1.80;99.90;;;;;;4182148;28;20465;-56
2021/01/05 05:44:25;;;;;;;20.30;9.10;;;1.70;99.90;;;;;;4201098;28;20544;-56
2021/01/05 05:46:33;;;;;;;21.43;9.10;;;1.80;99.90;;;;;;4197465;28;20568;-55
2021/01/05 05:48:46;;;;;;;18.20;8.60;;;1.80;99.90;;;;;;4200711;28;20471;-56
2021/01/05 05:50:58;;;;;;;21.30;9.00;;;1.80;99.90;;;;;;4201106;28;20490;-56
2021/01/05 05:53:05;;;;;;;20.93;9.20;;;1.80;99.90;;;;;;4200109;28;20469;-57
2021/01/05 05:55:20;;;;;;;24.77;9.53;;;1.80;99.90;;;;;;4200360;28;20521;-56
2021/01/05 05:57:40;;;;;;;20.87;8.97;;;1.80;99.90;;;;;;4199693;28;20481;-56
2021/01/05 05:59:47;;;;;;;23.07;9.60;;;1.80;99.90;;;;;;4200700;28;21016;-56
2021/01/05 06:01:48;;;;;;;20.93;8.53;;;1.80;99.90;;;;;;4199861;28;20485;-57
2021/01/05 06:03:50;;;;;;;20.80;9.00;;;1.80;99.90;;;;;;4200428;28;20479;-56
2021/01/05 06:05:51;;;;;;;20.80;8.17;;;1.80;99.90;;;;;;4199365;28;20477;-56
2021/01/05 06:07:53;;;;;;;23.03;9.97;;;1.80;99.90;;;;;;4198842;28;21025;-59
2021/01/05 06:09:54;;;;;;;23.50;9.93;;;1.80;99.90;;;;;;4200125;28;20494;-56
2021/01/05 06:11:56;;;;;;;20.10;8.63;;;1.90;99.90;;;;;;4199780;28;20482;-56
2021/01/05 06:13:58;;;;;;;18.73;9.27;;;1.80;99.90;;;;;;4200559;28;20478;-56
2021/01/05 06:15:59;;;;;;;21.17;9.20;;;1.80;99.90;;;;;;4200715;28;20480;-56
2021/01/05 06:18:02;;;;;;;21.63;8.97;;;1.80;99.90;;;;;;4200146;28;20477;-60
2021/01/05 06:20:04;;;;;;;22.13;10.00;;;1.90;99.90;;;;;;4200058;28;20777;-56
2021/01/05 06:22:05;;;;;;;20.43;9.50;;;1.90;99.90;;;;;;4199751;28;20488;-56
2021/01/05 06:24:07;;;;;;;21.50;10.10;;;1.90;99.90;;;;;;4201124;28;20476;-56
2021/01/05 06:26:09;;;;;;;21.00;9.20;;;1.90;99.90;;;;;;4199923;28;20469;-56
2021/01/05 06:28:11;;;;;;;21.53;8.77;;;1.90;99.90;;;;;;4200326;28;20480;-56
2021/01/05 06:30:14;;;;;;;20.10;8.97;;;1.90;99.90;;;;;;4199738;28;20481;-56
2021/01/05 06:32:16;;;;;;;18.77;8.57;;;1.90;99.90;;;;;;4199737;28;20474;-56
2021/01/05 06:34:17;;;;;;;21.30;8.43;;;1.90;99.90;;;;;;4199813;28;20943;-56
2021/01/05 06:36:18;;;;;;;19.20;8.23;;;1.90;99.90;;;;;;4199365;28;20482;-56
2021/01/05 06:38:20;;;;;;;16.93;8.03;;;1.90;99.90;;;;;;4199128;28;20497;-54
2021/01/05 06:40:23;;;;;;;18.60;8.07;;;1.90;99.90;;;;;;4200202;28;20474;-54
2021/01/05 06:42:25;;;;;;;19.50;7.90;;;1.90;99.90;;;;;;4201368;28;20551;-59
2021/01/05 06:44:26;;;;;;;17.13;7.97;;;1.90;99.90;;;;;;4203024;28;20483;-54
2021/01/05 06:46:28;;;;;;;19.93;8.03;;;1.90;99.90;;;;;;4203063;28;20477;-55
2021/01/05 06:48:30;;;;;;;17.47;7.83;;;1.90;99.90;;;;;;4201142;28;20489;-54
2021/01/05 06:50:31;;;;;;;20.80;8.30;;;1.90;99.90;;;;;;4200489;28;20544;-55
2021/01/05 06:52:32;;;;;;;18.07;7.80;;;1.90;99.90;;;;;;4202769;28;20814;-54
2021/01/05 06:54:34;;;;;;;19.97;8.87;;;1.90;99.90;;;;;;4202375;28;20480;-55
2021/01/05 06:56:48;;;;;;;18.90;8.50;;;1.90;99.90;;;;;;4202909;28;20473;-55
2021/01/05 06:58:49;;;;;;;19.70;9.85;;;1.90;99.90;;;;;;4201227;28;20456;-55
2021/01/05 07:00:50;;;;;;;20.60;10.82;;;2.00;99.90;;;;;;4200792;28;20911;-56
2021/01/05 07:02:54;;;;;;;19.07;8.00;;;2.00;99.90;;;;;;4202340;28;20230;-56
2021/01/05 07:04:55;;;;;;;17.13;7.93;;;2.00;99.90;;;;;;4203199;28;20535;-56
2021/01/05 07:06:59;;;;;;;20.80;10.05;;;2.00;99.90;;;;;;4202676;28;20577;-55
2021/01/05 07:09:00;;;;;;;18.23;9.10;;;2.00;99.90;;;;;;4202065;28;20216;-56
2021/01/05 07:11:02;;;;;;;18.95;9.85;;;2.00;99.90;;;;;;4201726;28;20466;-55
2021/01/05 07:13:03;;;;;;;20.02;10.15;;;2.10;99.90;;;;;;4201599;28;20472;-56
2021/01/05 07:15:06;;;;;;;20.23;10.45;;;2.00;99.90;;;;;;4200494;28;20473;-56
2021/01/05 07:17:07;;;;;;;16.00;8.07;;;2.10;99.90;;;;;;4201364;28;20234;-56
2021/01/05 07:19:10;;;;;;;18.35;9.55;;;2.10;99.90;;;;;;4202508;28;20460;-55
2021/01/05 07:21:11;;;;;;;17.87;8.23;;;2.10;99.90;;;;;;4203594;28;20216;-55
2021/01/05 07:23:12;;;;;;;16.67;8.27;;;2.10;99.90;;;;;;4202748;28;20499;-55
2021/01/05 07:25:15;;;;;;;20.10;9.80;;;2.10;99.90;;;;;;4201168;28;20467;-56
2021/01/05 07:27:16;;;;;;;18.27;8.40;;;2.10;99.90;;;;;;4203457;28;20216;-56
2021/01/05 07:29:19;;;;;;;17.17;8.07;;;2.10;99.90;;;;;;4202258;28;20464;-55
2021/01/05 07:31:21;;;;;;;17.20;7.97;;;2.10;99.90;;;;;;4202697;28;20542;-55
2021/01/05 07:33:22;;;;;;;20.07;8.73;;;2.10;99.90;;;;;;4203042;28;20470;-55
2021/01/05 07:35:24;;;;;;;19.70;8.03;;;2.10;99.90;;;;;;4202770;28;20530;-55
2021/01/05 07:37:30;;;;;;;16.93;7.80;;;2.10;99.90;;;;;;4201872;28;20485;-56
2021/01/05 07:39:34;;;;;;;16.73;7.63;;;2.10;99.90;;;;;;4202122;28;20737;-56
2021/01/05 07:41:35;;;;;;;15.77;7.53;;;2.10;99.90;;;;;;4202110;28;20535;-55
2021/01/05 07:43:36;;;;;;;18.03;8.30;;;2.10;99.90;;;;;;4201973;28;20472;-55
2021/01/05 07:45:37;;;;;;;17.33;7.77;;;2.10;99.90;;;;;;4203375;28;20494;-55
2021/01/05 07:47:39;;;;;;;19.80;8.23;;;2.10;99.90;;;;;;4203042;28;20462;-55
2021/01/05 07:49:41;;;;;;;16.63;7.63;;;2.10;99.90;;;;;;4201390;28;20907;-56
2021/01/05 07:51:47;;;;;;;18.70;8.03;;;2.10;99.90;;;;;;4202256;28;20481;-55
2021/01/05 07:53:48;;;;;;;17.57;8.33;;;2.10;99.90;;;;;;4205194;28;20925;-55
2021/01/05 07:55:49;;;;;;;17.80;7.70;;;2.00;99.90;;;;;;4207920;28;20480;-56
2021/01/05 07:57:52;;;;;;;18.93;7.67;;;2.10;99.90;;;;;;4203761;28;20566;-56
2021/01/05 07:59:54;;;;;;;16.63;7.27;;;2.10;99.90;;;;;;4202129;28;20504;-56
2021/01/05 08:01:55;;;;;;;15.40;7.77;;;2.10;99.90;;;;;;4201630;28;21022;-55
2021/01/05 08:03:56;;;;;;;15.17;7.40;;;2.10;99.90;;;;;;4202704;28;21111;-60
2021/01/05 08:05:58;;;;;;;19.90;8.17;;;2.10;99.90;;;;;;4202352;28;20461;-55
2021/01/05 08:08:00;;;;;;;17.73;8.47;;;2.10;99.90;;;;;;4203038;28;20578;-55
2021/01/05 08:10:01;;;;;;;18.00;8.07;;;2.10;99.90;;;;;;4201139;28;20491;-55
2021/01/05 08:12:03;;;;;;;17.90;7.67;;;2.20;99.90;;;;;;4202976;28;20477;-55
2021/01/05 08:14:05;;;;;;;18.10;8.13;;;2.20;99.90;;;;;;4202639;28;20474;-56
2021/01/05 08:16:07;;;;;;;15.20;7.50;;;2.20;99.90;;;;;;4201073;28;20474;-56
2021/01/05 08:18:08;;;;;;;16.57;7.90;;;2.20;99.90;;;;;;4201382;28;20520;-56
2021/01/05 08:20:11;;;;;;;17.70;7.87;;;2.20;99.90;;;;;;4202064;28;20476;-55
2021/01/05 08:22:13;;;;;;;19.00;7.70;;;2.20;99.90;;;;;;4201223;28;20507;-55
2021/01/05 08:24:18;;;;;;;16.03;7.10;;;2.30;99.90;;;;;;4201400;28;20483;-55
2021/01/05 08:26:20;;;;;;;17.13;7.83;;;2.20;99.90;;;;;;4201644;28;20521;-56
2021/01/05 08:28:21;;;;;;;19.63;8.40;;;2.30;99.90;;;;;;4201682;28;20478;-56
2021/01/05 08:30:24;;;;;;;16.30;7.20;;;2.30;99.90;;;;;;4202364;28;20580;-55
2021/01/05 08:32:26;;;;;;;17.33;7.73;;;2.30;99.90;;;;;;4202648;28;20467;-56
2021/01/05 08:34:27;;;;;;;16.53;7.30;;;2.30;99.90;;;;;;4202728;28;20484;-55
2021/01/05 08:36:29;;;;;;;17.17;7.43;;;2.30;99.90;;;;;;4201466;28;20467;-55
2021/01/05 08:38:30;;;;;;;15.97;7.70;;;2.40;99.90;;;;;;4202387;28;20489;-56
2021/01/05 08:40:34;;;;;;;18.20;7.80;;;2.30;99.90;;;;;;4202252;28;20468;-56
2021/01/05 08:42:36;;;;;;;17.07;7.27;;;2.40;99.90;;;;;;4201924;28;20586;-55
2021/01/05 08:44:37;;;;;;;19.20;7.57;;;2.40;99.90;;;;;;4201371;28;20553;-55
2021/01/05 08:46:40;;;;;;;16.50;7.23;;;2.40;99.90;;;;;;4201169;28;20474;-55
2021/01/05 08:48:41;;;;;;;16.70;6.93;;;2.40;99.90;;;;;;4201308;28;20472;-55
2021/01/05 08:50:42;;;;;;;15.07;6.80;;;2.40;99.90;;;;;;4202007;28;20495;-55
2021/01/05 08:52:44;;;;;;;15.17;7.63;;;2.40;99.90;;;;;;4200917;28;20480;-55
2021/01/05 08:54:45;;;;;;;16.03;7.10;;;2.50;99.90;;;;;;4202374;28;20874;-55
2021/01/05 08:56:52;;;;;;;16.60;7.77;;;2.50;99.90;;;;;;4198800;28;20481;-55
2021/01/05 08:58:54;;;;;;;15.37;7.43;;;2.50;99.90;;;;;;4200996;28;21080;-55
2021/01/05 09:00:56;;;;;;;17.20;7.77;;;2.50;99.90;;;;;;4199582;28;20474;-55
2021/01/05 09:02:57;;;;;;;15.93;7.23;;;2.50;99.90;;;;;;4201251;28;20481;-55
2021/01/05 09:04:58;;;;;;;16.03;7.90;;;2.50;99.90;;;;;;4199946;28;20470;-55
2021/01/05 09:07:00;;;;;;;16.37;7.50;;;2.60;99.90;;;;;;4201663;28;20478;-56
2021/01/05 09:09:01;;;;;;;16.77;7.63;;;2.60;99.90;;;;;;4201631;28;20471;-56
2021/01/05 09:11:06;;;;;;;17.83;8.27;;;2.60;99.90;;;;;;4201471;28;20501;-56
2021/01/05 09:13:08;;;;;;;18.20;8.10;;;2.50;99.90;;;;;;4201267;28;20626;-56
2021/01/05 09:15:13;;;;;;;21.63;8.87;;;2.50;99.90;;;;;;4199867;28;20478;-55
2021/01/05 09:17:17;;;;;;;22.47;9.07;;;2.50;99.90;;;;;;4200936;28;20462;-55
2021/01/05 09:19:18;;;;;;;21.77;8.90;;;2.50;99.90;;;;;;4200124;28;20813;-55
2021/01/05 09:21:22;;;;;;;18.90;8.03;;;2.50;99.90;;;;;;4200349;28;20531;-55
2021/01/05 09:23:24;;;;;;;17.30;8.03;;;2.50;99.90;;;;;;4200314;28;20473;-56
2021/01/05 09:25:25;;;;;;;18.23;8.40;;;2.50;99.90;;;;;;4200770;28;20945;-55
2021/01/05 09:27:27;;;;;;;16.03;7.90;;;2.50;99.90;;;;;;4200149;28;20469;-55
2021/01/05 09:29:29;;;;;;;17.63;7.57;;;2.40;99.90;;;;;;4200255;28;20491;-55
2021/01/05 09:31:31;;;;;;;17.77;8.23;;;2.40;99.90;;;;;;4201192;28;20532;-55
2021/01/05 09:33:32;;;;;;;16.47;8.27;;;2.40;99.90;;;;;;4199717;28;20485;-55
2021/01/05 09:35:33;;;;;;;15.63;7.90;;;2.40;99.90;;;;;;4200863;28;20474;-55
2021/01/05 09:37:35;;;;;;;18.40;8.37;;;2.40;99.90;;;;;;4202283;28;20470;-55
2021/01/05 09:39:36;;;;;;;20.43;9.00;;;2.50;99.90;;;;;;4199818;28;20478;-55
2021/01/05 09:41:40;;;;;;;19.40;9.17;;;2.50;99.90;;;;;;4201391;28;20479;-58
2021/01/05 09:43:41;;;;;;;18.30;8.13;;;2.60;99.90;;;;;;4199627;28;20476;-55
2021/01/05 09:45:45;;;;;;;17.47;8.20;;;2.70;99.90;;;;;;4201572;28;20475;-55
2021/01/05 09:47:46;;;;;;;17.10;8.20;;;2.70;99.90;;;;;;4200376;28;20975;-56
2021/01/05 09:49:48;;;;;;;19.83;9.23;;;2.80;99.90;;;;;;4203036;28;20471;-55
2021/01/05 09:51:50;;;;;;;20.47;9.07;;;2.80;99.90;;;;;;4200126;28;20572;-56
2021/01/05 09:53:52;;;;;;;19.13;8.73;;;2.80;99.90;;;;;;4199432;28;20498;-56
2021/01/05 09:55:53;;;;;;;19.67;8.23;;;2.80;99.90;;;;;;4200631;28;20469;-56
2021/01/05 09:57:55;;;;;;;17.13;8.40;;;2.80;99.90;;;;;;4200526;28;20513;-55
2021/01/05 09:59:56;;;;;;;17.63;8.43;;;2.80;99.90;;;;;;4200323;28;20977;-55
2021/01/05 10:02:04;;;;;;;15.40;8.23;;;2.80;99.90;;;;;;4199561;28;20475;-55
2021/01/05 10:04:05;;;;;;;18.23;8.30;;;2.80;99.90;;;;;;4200255;28;20467;-55
2021/01/05 10:06:11;;;;;;;19.17;8.50;;;2.80;99.90;;;;;;4200360;28;20552;-55
2021/01/05 10:08:12;;;;;;;15.63;7.70;;;2.80;99.90;;;;;;4200774;28;20485;-55
2021/01/05 10:10:18;;;;;;;14.47;7.90;;;2.80;99.90;;;;;;4199826;28;20493;-55
2021/01/05 10:12:19;;;;;;;16.20;7.53;;;2.80;99.90;;;;;;4199551;28;20470;-55
2021/01/05 10:14:22;;;;;;;15.17;6.97;;;2.80;99.90;;;;;;4199302;28;20463;-55
2021/01/05 10:16:23;;;;;;;16.63;7.93;;;2.80;99.90;;;;;;4201298;28;20557;-55
2021/01/05 10:18:25;;;;;;;15.53;7.27;;;2.80;99.90;;;;;;4203078;28;20474;-55
2021/01/05 10:20:27;;;;;;;16.20;7.40;;;2.80;99.90;;;;;;4203501;28;22308;-55
2021/01/05 10:22:29;;;;;;;17.60;7.13;;;2.80;99.90;;;;;;4202418;28;20485;-55
2021/01/05 10:24:31;;;;;;;19.30;8.07;;;2.80;99.90;;;;;;4202505;28;20800;-56
2021/01/05 10:26:33;;;;;;;17.40;8.63;;;2.80;99.90;;;;;;4203959;28;20455;-55
2021/01/05 10:28:34;;;;;;;13.53;7.43;;;2.80;99.90;;;;;;4202435;28;20217;-56
2021/01/05 10:30:36;;;;;;;17.20;8.70;;;2.80;99.90;;;;;;4202567;28;20485;-55
2021/01/05 10:32:37;;;;;;;19.13;10.00;;;2.90;99.90;;;;;;4202183;28;20468;-55
2021/01/05 10:34:39;;;;;;;16.70;8.13;;;2.90;99.90;;;;;;4203611;28;20371;-54
2021/01/05 10:36:41;;;;;;;13.87;6.80;;;3.00;99.90;;;;;;4205530;28;20462;-56
2021/01/05 10:38:42;;;;;;;11.63;6.27;;;2.90;99.90;;;;;;4206019;28;20504;-56
2021/01/05 10:40:43;;;;;;;12.50;7.25;;;2.90;99.90;;;;;;4202335;28;20441;-58
2021/01/05 10:42:46;;;;;;;11.50;5.63;;;3.00;99.90;;;;;;4204057;28;20234;-55
2021/01/05 10:44:48;;;;;;;11.47;6.00;;;3.00;99.90;;;;;;4203955;28;20489;-56
2021/01/05 10:46:49;;;;;;;11.37;6.20;;;2.90;99.90;;;;;;4202406;28;20481;-56
2021/01/05 10:48:50;;;;;;;9.93;5.40;;;2.90;99.90;;;;;;4203422;28;20812;-56
2021/01/05 10:50:53;;;;;;;9.77;5.70;;;3.00;99.90;;;;;;4203465;28;20490;-56